Time;durP1;ratioP1;P1;durP2;ratioP2;P2;SDS_P1;SDS_P2;PMS_P1;PMS_P2;Temp;Humidity;BMP_temperature;BMP_pressure;BME280_temperature;BME280_humidity;BME280_pressure;Samples;Min_cycle;Max_cycle;Signal;HPM_P1;HPM_P2
2022/07/06 00:00:34;;;;;;;;;;;15.50;99.90;;;;;;5051210;28;20335;-71
2022/07/06 00:03:00;;;;;;;;;;;15.40;99.90;;;;;;5042543;28;20008;-71
2022/07/06 00:05:25;;;;;;;;;;;15.50;99.90;;;;;;5015687;28;19921;-72
2022/07/06 00:07:51;;;;;;;;;;;15.50;99.90;;;;;;5012472;28;20289;-69
2022/07/06 00:10:16;;;;;;;;;;;15.50;99.90;;;;;;5014506;28;20318;-71
2022/07/06 00:12:42;;;;;;;;;;;15.50;99.90;;;;;;4996860;28;20070;-68
2022/07/06 00:15:08;;;;;;;;;;;15.50;99.90;;;;;;5013865;28;19921;-72
2022/07/06 00:17:33;;;;;;;;;;;15.50;99.90;;;;;;5013353;28;19939;-72
2022/07/06 00:19:59;;;;;;;;;;;15.50;99.90;;;;;;5029791;28;20315;-72
2022/07/06 00:22:25;;;;;;;;;;;15.50;99.90;;;;;;4995982;28;19983;-72
2022/07/06 00:24:50;;;;;;;;;;;15.50;99.90;;;;;;5029789;28;20385;-72
2022/07/06 00:27:16;;;;;;;;;;;15.50;99.90;;;;;;5031070;28;19917;-72
2022/07/06 00:29:43;;;;;;;;;;;15.50;99.90;;;;;;5027951;28;19917;-72
2022/07/06 00:32:10;;;;;;;;;;;15.50;99.90;;;;;;5026978;28;19963;-72
2022/07/06 00:34:41;;;;;;;;;;;15.50;99.90;;;;;;5025786;28;19917;-72
2022/07/06 00:37:10;;;;;;;;;;;15.50;99.90;;;;;;5025598;28;19921;-72
2022/07/06 00:39:35;;;;;;;;;;;15.50;99.90;;;;;;5012340;28;20220;-72
2022/07/06 00:42:01;;;;;;;;;;;15.50;99.90;;;;;;4996056;28;20549;-73
2022/07/06 00:44:26;;;;;;;;;;;15.50;99.90;;;;;;5011675;28;19917;-72
2022/07/06 00:46:52;;;;;;;;;;;15.50;99.90;;;;;;5012097;28;19967;-72
2022/07/06 00:52:05;;;;;;;;;;;15.50;99.90;;;;;;5029727;28;19967;-72
2022/07/06 00:54:31;;;;;;;;;;;15.50;99.90;;;;;;5030410;28;19921;-72
2022/07/06 00:56:57;;;;;;;;;;;15.40;99.90;;;;;;5029725;28;19917;-72
2022/07/06 00:59:23;;;;;;;;;;;15.50;99.90;;;;;;5012081;28;19921;-71
2022/07/06 01:01:48;;;;;;;;;;;15.50;99.90;;;;;;5029807;28;19989;-71
2022/07/06 01:04:14;;;;;;;;;;;15.50;99.90;;;;;;5022068;28;20012;-71
2022/07/06 01:06:40;;;;;;;;;;;15.40;99.90;;;;;;5032219;28;19917;-71
2022/07/06 01:09:09;;;;;;;;;;;15.50;99.90;;;;;;4995524;28;19917;-71
2022/07/06 01:11:34;;;;;;;;;;;15.50;99.90;;;;;;4996329;28;20593;-71
2022/07/06 01:14:00;;;;;;;;;;;15.50;99.90;;;;;;5044608;28;19921;-72
2022/07/06 01:16:25;;;;;;;;;;;15.50;99.90;;;;;;5045525;28;19932;-71
2022/07/06 01:18:51;;;;;;;;;;;15.40;99.90;;;;;;5031255;28;19928;-71
2022/07/06 01:21:16;;;;;;;;;;;15.50;99.90;;;;;;4998965;28;19924;-71
2022/07/06 01:23:46;;;;;;;;;;;15.50;99.90;;;;;;5010624;28;19917;-71
2022/07/06 01:26:19;;;;;;;;;;;15.50;99.90;;;;;;5012341;28;19963;-71
2022/07/06 01:28:45;;;;;;;;;;;15.40;99.90;;;;;;5029736;28;19920;-72
2022/07/06 01:31:21;;;;;;;;;;;15.50;99.90;;;;;;5030337;28;20052;-71
2022/07/06 01:33:48;;;;;;;;;;;15.50;99.90;;;;;;5046541;28;20288;-71
2022/07/06 01:36:14;;;;;;;;;;;15.40;99.90;;;;;;5031419;28;19965;-72
2022/07/06 01:38:43;;;;;;;;;;;15.40;99.90;;;;;;5013737;28;19928;-72
2022/07/06 01:41:09;;;;;;;;;;;15.40;99.90;;;;;;5029284;28;20058;-73
2022/07/06 01:43:34;;;;;;;;;;;15.40;99.90;;;;;;5028706;28;20396;-72
2022/07/06 01:46:00;;;;;;;;;;;15.40;99.90;;;;;;5029973;28;19924;-72
2022/07/06 01:48:25;;;;;;;;;;;15.40;99.90;;;;;;5028090;28;20313;-72
2022/07/06 01:50:51;;;;;;;;;;;15.50;99.90;;;;;;5010560;28;19917;-72
2022/07/06 01:53:16;;;;;;;;;;;15.40;99.90;;;;;;5021667;28;20043;-72
2022/07/06 01:55:42;;;;;;;;;;;15.40;99.90;;;;;;5048113;28;20452;-73
2022/07/06 01:58:08;;;;;;;;;;;15.50;99.90;;;;;;5034865;28;19971;-72
2022/07/06 02:00:34;;;;;;;;;;;15.50;99.90;;;;;;5010795;28;20004;-73
2022/07/06 02:02:59;;;;;;;;;;;15.50;99.90;;;;;;5012194;28;20003;-73
2022/07/06 02:05:25;;;;;;;;;;;15.50;99.90;;;;;;5020639;28;19924;-72
2022/07/06 02:07:51;;;;;;;;;;;15.40;99.90;;;;;;5010886;28;20409;-73
2022/07/06 02:10:16;;;;;;;;;;;15.50;99.90;;;;;;5027937;28;19917;-73
2022/07/06 02:12:42;;;;;;;;;;;15.40;99.90;;;;;;5029260;28;20221;-73
2022/07/06 02:15:10;;;;;;;;;;;15.50;99.90;;;;;;5010116;28;20024;-72
2022/07/06 02:17:39;;;;;;;;;;;15.50;99.90;;;;;;5028281;28;19964;-73
2022/07/06 02:20:05;;;;;;;;;;;15.40;99.90;;;;;;4995050;28;19921;-73
2022/07/06 02:22:30;;;;;;;;;;;15.50;99.90;;;;;;5028144;28;20424;-72
2022/07/06 02:24:56;;;;;;;;;;;15.50;99.90;;;;;;5018118;28;19940;-73
2022/07/06 02:27:21;;;;;;;;;;;15.40;99.90;;;;;;5028034;28;20011;-73
2022/07/06 02:29:47;;;;;;;;;;;15.40;99.90;;;;;;5034752;28;19921;-72
2022/07/06 02:32:12;;;;;;;;;;;15.40;99.90;;;;;;5010204;28;19920;-73
2022/07/06 02:34:38;;;;;;;;;;;15.40;99.90;;;;;;5016954;28;20384;-72
2022/07/06 02:37:04;;;;;;;;;;;15.40;99.90;;;;;;5010954;28;19975;-73
2022/07/06 02:39:29;;;;;;;;;;;15.40;99.90;;;;;;5028200;28;20305;-73
2022/07/06 02:41:55;;;;;;;;;;;15.30;99.90;;;;;;4994211;28;19921;-72
2022/07/06 02:44:22;;;;;;;;;;;15.40;99.90;;;;;;5027726;28;19921;-73
2022/07/06 02:46:48;;;;;;;;;;;15.40;99.90;;;;;;5028610;28;19963;-72
2022/07/06 02:49:13;;;;;;;;;;;15.40;99.90;;;;;;5027692;28;20329;-72
2022/07/06 02:51:39;;;;;;;;;;;15.40;99.90;;;;;;5020122;28;20048;-72
2022/07/06 02:54:04;;;;;;;;;;;15.40;99.90;;;;;;5030632;28;19928;-72
2022/07/06 02:56:30;;;;;;;;;;;15.40;99.90;;;;;;5028940;28;20220;-73
2022/07/06 02:58:55;;;;;;;;;;;15.30;99.90;;;;;;5014342;28;19943;-73
2022/07/06 03:01:21;;;;;;;;;;;15.30;99.90;;;;;;5012955;28;19916;-72
2022/07/06 03:03:46;;;;;;;;;;;15.30;99.90;;;;;;5027316;28;19916;-72
2022/07/06 03:06:12;;;;;;;;;;;15.30;99.90;;;;;;5016794;28;19932;-72
2022/07/06 03:08:38;;;;;;;;;;;15.30;99.90;;;;;;5009981;28;19967;-72
2022/07/06 03:11:04;;;;;;;;;;;15.30;99.90;;;;;;4994444;28;19921;-72
2022/07/06 03:13:30;;;;;;;;;;;15.20;99.90;;;;;;5018366;28;19927;-72
2022/07/06 03:15:55;;;;;;;;;;;15.20;99.90;;;;;;5017970;28;20255;-73
2022/07/06 03:18:21;;;;;;;;;;;15.20;99.90;;;;;;4993326;28;19929;-72
2022/07/06 03:20:47;;;;;;;;;;;15.10;99.90;;;;;;5027877;28;19923;-72
2022/07/06 03:23:12;;;;;;;;;;;15.10;99.90;;;;;;5028774;28;20007;-72
2022/07/06 03:25:39;;;;;;;;;;;15.00;99.90;;;;;;5009983;28;20552;-73
2022/07/06 03:28:04;;;;;;;;;;;15.00;99.90;;;;;;4994627;28;19970;-72
2022/07/06 03:30:30;;;;;;;;;;;14.90;99.90;;;;;;5027274;28;19917;-72
2022/07/06 03:32:55;;;;;;;;;;;14.90;99.90;;;;;;5012555;28;20003;-72
2022/07/06 03:35:21;;;;;;;;;;;14.90;99.90;;;;;;5045671;28;19916;-72
2022/07/06 03:37:47;;;;;;;;;;;14.80;99.90;;;;;;5029985;28;19927;-72
2022/07/06 03:40:13;;;;;;;;;;;14.80;99.90;;;;;;5043070;28;19921;-72
2022/07/06 03:42:39;;;;;;;;;;;14.80;99.90;;;;;;5009934;28;19988;-72
2022/07/06 03:45:05;;;;;;;;;;;14.70;99.90;;;;;;5010485;28;19972;-72
2022/07/06 03:47:30;;;;;;;;;;;14.70;99.90;;;;;;5030269;28;19917;-72
2022/07/06 03:49:56;;;;;;;;;;;14.70;99.90;;;;;;5034241;28;20072;-72
2022/07/06 03:52:21;;;;;;;;;;;14.60;99.90;;;;;;5049852;28;20316;-72
2022/07/06 03:54:47;;;;;;;;;;;14.70;99.90;;;;;;5050667;28;20407;-72
2022/07/06 03:57:13;;;;;;;;;;;14.60;99.90;;;;;;5051044;28;19986;-72
2022/07/06 03:59:39;;;;;;;;;;;14.50;99.90;;;;;;5006295;28;19917;-72
2022/07/06 04:02:04;;;;;;;;;;;14.60;99.90;;;;;;4997045;28;20313;-73
2022/07/06 04:04:30;;;;;;;;;;;14.50;99.90;;;;;;5045119;28;19917;-72
2022/07/06 04:06:55;;;;;;;;;;;14.50;99.90;;;;;;5031260;28;19923;-72
2022/07/06 04:11:51;;;;;;;;;;;14.50;99.90;;;;;;5069680;28;19928;-86
2022/07/06 04:14:17;;;;;;;;;;;14.50;99.90;;;;;;5065389;28;19975;-86
2022/07/06 04:16:42;;;;;;;;;;;14.40;99.90;;;;;;5068541;28;20337;-86
2022/07/06 04:19:08;;;;;;;;;;;14.50;99.90;;;;;;5065275;28;20000;-86
2022/07/06 04:21:36;;;;;;;;;;;14.50;99.90;;;;;;5059493;28;19920;-86
2022/07/06 04:24:02;;;;;;;;;;;14.50;99.90;;;;;;5071496;28;19992;-86
2022/07/06 04:26:27;;;;;;;;;;;14.50;99.90;;;;;;5051666;28;19949;-86
2022/07/06 04:28:53;;;;;;;;;;;14.40;99.90;;;;;;5043711;28;20374;-86
2022/07/06 04:31:18;;;;;;;;;;;14.40;99.90;;;;;;5042505;28;19943;-84
2022/07/06 04:33:44;;;;;;;;;;;14.40;99.90;;;;;;5048292;28;19923;-85
2022/07/06 04:36:10;;;;;;;;;;;14.40;99.90;;;;;;5058923;28;20066;-86
2022/07/06 04:38:35;;;;;;;;;;;14.50;99.90;;;;;;5068476;28;19959;-86
2022/07/06 04:41:04;;;;;;;;;;;14.50;99.90;;;;;;5071517;28;19917;-85
2022/07/06 04:43:32;;;;;;;;;;;14.50;99.90;;;;;;5075998;28;19948;-86
2022/07/06 04:45:58;;;;;;;;;;;14.60;99.90;;;;;;5069289;28;20438;-87
2022/07/06 04:48:23;;;;;;;;;;;14.60;99.90;;;;;;5043861;28;20011;-86
2022/07/06 04:50:49;;;;;;;;;;;14.60;99.90;;;;;;5051414;28;19916;-86
2022/07/06 04:53:15;;;;;;;;;;;14.60;99.90;;;;;;5027614;28;19939;-86
2022/07/06 04:55:40;;;;;;;;;;;14.60;99.90;;;;;;5059550;28;19921;-86
2022/07/06 04:58:06;;;;;;;;;;;14.60;99.90;;;;;;5072586;28;20365;-86
2022/07/06 05:00:34;;;;;;;;;;;14.60;99.90;;;;;;5071823;28;20429;-85
2022/07/06 05:03:02;;;;;;;;;;;14.70;99.90;;;;;;5047036;28;19925;-86
2022/07/06 05:05:28;;;;;;;;;;;14.60;99.90;;;;;;5041685;28;19999;-86
2022/07/06 05:07:53;;;;;;;;;;;14.60;99.90;;;;;;5055132;28;20442;-86
2022/07/06 05:10:19;;;;;;;;;;;14.60;99.90;;;;;;5066956;28;19916;-86
2022/07/06 05:12:44;;;;;;;;;;;14.70;99.90;;;;;;5058079;28;19916;-86
2022/07/06 05:15:12;;;;;;;;;;;14.70;99.90;;;;;;5037705;28;19928;-86
2022/07/06 05:17:44;;;;;;;;;;;14.80;99.90;;;;;;5040064;28;19917;-86
2022/07/06 05:20:12;;;;;;;;;;;14.70;99.90;;;;;;5048846;28;19994;-86
2022/07/06 05:22:38;;;;;;;;;;;14.70;99.90;;;;;;5050304;28;19967;-86
2022/07/06 05:25:06;;;;;;;;;;;14.80;99.90;;;;;;5037786;28;20016;-85
2022/07/06 05:27:34;;;;;;;;;;;14.80;99.90;;;;;;5050671;28;20314;-86
2022/07/06 05:30:00;;;;;;;;;;;14.80;99.90;;;;;;5026271;28;19917;-86
2022/07/06 05:32:28;;;;;;;;;;;14.80;99.90;;;;;;5040631;28;20011;-86
2022/07/06 05:34:54;;;;;;;;;;;14.80;99.90;;;;;;5069911;28;19978;-86
2022/07/06 05:37:19;;;;;;;;;;;14.90;99.90;;;;;;5021468;28;20375;-86
2022/07/06 05:39:49;;;;;;;;;;;14.80;99.90;;;;;;5051003;28;19963;-86
2022/07/06 05:42:14;;;;;;;;;;;14.90;99.90;;;;;;5065545;28;19916;-86
2022/07/06 05:44:40;;;;;;;;;;;14.80;99.90;;;;;;5070173;28;19969;-86
2022/07/06 05:52:37;;;;;;;;;;;14.90;99.90;;;;;;5045760;28;20015;-86
2022/07/06 05:55:06;;;;;;;;;;;14.90;99.90;;;;;;5040795;28;19916;-86
2022/07/06 05:57:35;;;;;;;;;;;15.10;99.90;;;;;;5059666;28;20155;-86
2022/07/06 06:00:07;;;;;;;;;;;15.00;99.90;;;;;;5069862;28;19916;-86
2022/07/06 06:02:36;;;;;;;;;;;14.90;99.90;;;;;;5069578;28;20347;-85
2022/07/06 06:05:05;;;;;;;;;;;15.00;99.90;;;;;;5055869;28;20052;-86
2022/07/06 06:07:35;;;;;;;;;;;14.90;99.90;;;;;;5066505;28;19960;-85
2022/07/06 06:10:03;;;;;;;;;;;15.00;99.90;;;;;;5069298;28;20447;-86
2022/07/06 06:12:38;;;;;;;;;;;15.10;99.90;;;;;;5042321;28;19916;-86
2022/07/06 06:15:04;;;;;;;;;;;15.00;99.90;;;;;;5071541;28;19920;-86
2022/07/06 06:17:32;;;;;;;;;;;15.00;99.90;;;;;;5053260;28;19923;-86
2022/07/06 06:20:09;;;;;;;;;;;15.10;99.90;;;;;;5045934;28;19921;-87
2022/07/06 06:22:44;;;;;;;;;;;15.10;99.90;;;;;;5049697;28;20305;-86
2022/07/06 06:25:10;;;;;;;;;;;15.20;99.90;;;;;;5033302;28;19917;-86
2022/07/06 06:27:35;;;;;;;;;;;15.20;99.90;;;;;;5050841;28;20377;-86
2022/07/06 06:30:04;;;;;;;;;;;15.20;99.90;;;;;;5043085;28;19921;-86
2022/07/06 06:32:36;;;;;;;;;;;15.20;99.90;;;;;;5047973;28;20409;-85
2022/07/06 06:35:04;;;;;;;;;;;15.30;99.90;;;;;;5052161;28;19920;-86
2022/07/06 06:37:30;;;;;;;;;;;15.30;99.90;;;;;;5073838;28;19917;-86
2022/07/06 06:39:55;;;;;;;;;;;15.30;99.90;;;;;;5047015;28;19924;-86
2022/07/06 06:42:24;;;;;;;;;;;15.40;99.90;;;;;;5061871;28;20003;-86
2022/07/06 06:44:49;;;;;;;;;;;15.30;99.90;;;;;;5069009;28;19965;-86
2022/07/06 06:47:19;;;;;;;;;;;15.40;99.90;;;;;;5029040;28;20337;-86
2022/07/06 06:49:45;;;;;;;;;;;15.40;99.90;;;;;;5068069;28;19923;-86
2022/07/06 06:52:10;;;;;;;;;;;15.40;99.90;;;;;;5030276;28;20386;-85
2022/07/06 06:54:36;;;;;;;;;;;15.40;99.90;;;;;;5032426;28;19917;-86
2022/07/06 06:57:04;;;;;;;;;;;15.40;99.90;;;;;;5044362;28;19944;-86
2022/07/06 06:59:37;;;;;;;;;;;15.40;99.90;;;;;;5051094;28;19936;-86
2022/07/06 07:02:12;;;;;;;;;;;15.50;99.90;;;;;;5068564;28;19966;-86
2022/07/06 07:04:37;;;;;;;;;;;15.50;99.90;;;;;;5068450;28;19916;-87
2022/07/06 07:07:15;;;;;;;;;;;15.60;99.90;;;;;;5044829;28;19924;-86
2022/07/06 07:09:43;;;;;;;;;;;15.60;99.90;;;;;;5066823;28;19923;-86
2022/07/06 07:12:10;;;;;;;;;;;15.70;99.90;;;;;;5043382;28;20460;-86
2022/07/06 07:14:37;;;;;;;;;;;15.80;99.90;;;;;;5031854;28;20011;-86
2022/07/06 07:17:05;;;;;;;;;;;15.80;99.90;;;;;;5038613;28;19920;-86
2022/07/06 07:19:33;;;;;;;;;;;15.90;99.90;;;;;;5031426;28;20378;-86
2022/07/06 07:21:59;;;;;;;;;;;16.00;99.90;;;;;;5038245;28;19917;-85
2022/07/06 07:24:24;;;;;;;;;;;16.10;99.90;;;;;;5057076;28;20382;-86
2022/07/06 07:26:50;;;;;;;;;;;16.10;99.90;;;;;;5074069;28;19930;-86
2022/07/06 07:29:15;;;;;;;;;;;16.10;99.90;;;;;;5073860;28;20370;-86
2022/07/06 07:31:41;;;;;;;;;;;16.20;99.90;;;;;;5065944;28;19923;-86
2022/07/06 07:34:07;;;;;;;;;;;16.20;99.90;;;;;;5060801;28;20379;-85
2022/07/06 07:36:35;;;;;;;;;;;16.30;99.90;;;;;;5052472;28;20267;-86
2022/07/06 07:39:07;;;;;;;;;;;16.40;99.90;;;;;;5073097;28;19930;-86
2022/07/06 07:41:35;;;;;;;;;;;16.50;99.90;;;;;;5064758;28;20011;-85
2022/07/06 07:44:04;;;;;;;;;;;16.50;99.90;;;;;;5063709;28;19934;-87
2022/07/06 07:46:32;;;;;;;;;;;16.60;99.90;;;;;;5072301;28;20031;-86
2022/07/06 07:49:00;;;;;;;;;;;16.60;99.90;;;;;;5069145;28;19920;-86
2022/07/06 07:51:29;;;;;;;;;;;16.70;99.90;;;;;;5050551;28;19920;-84
2022/07/06 07:53:54;;;;;;;;;;;16.70;99.90;;;;;;5043337;28;20240;-86
2022/07/06 07:56:33;;;;;;;;;;;16.60;99.90;;;;;;5052687;28;19960;-86
2022/07/06 07:58:59;;;;;;;;;;;16.70;99.90;;;;;;5041056;28;19962;-86
2022/07/06 08:01:27;;;;;;;;;;;16.60;99.90;;;;;;5068485;28;19923;-86
2022/07/06 08:04:07;;;;;;;;;;;16.70;99.90;;;;;;5072990;28;20384;-86
2022/07/06 08:06:35;;;;;;;;;;;16.80;99.90;;;;;;5051369;28;19920;-86
2022/07/06 08:09:04;;;;;;;;;;;16.90;99.90;;;;;;5064520;28;19927;-86
2022/07/06 08:11:37;;;;;;;;;;;16.90;99.90;;;;;;5071998;28;20430;-86
2022/07/06 08:14:03;;;;;;;;;;;17.00;99.90;;;;;;5073826;28;20332;-86
2022/07/06 08:16:34;;;;;;;;;;;17.00;99.90;;;;;;5047264;28;19921;-86
2022/07/06 08:19:03;;;;;;;;;;;17.00;99.90;;;;;;5064581;28;19967;-86
2022/07/06 08:21:28;;;;;;;;;;;17.00;99.90;;;;;;5054905;28;19924;-86
2022/07/06 08:23:54;;;;;;;;;;;17.00;99.90;;;;;;5014829;28;19925;-86
2022/07/06 08:26:20;;;;;;;;;;;17.10;99.90;;;;;;5018040;28;20040;-84
2022/07/06 08:28:45;;;;;;;;;;;17.10;99.90;;;;;;5051137;28;20019;-84
2022/07/06 08:31:13;;;;;;;;;;;17.20;99.90;;;;;;5031716;28;19917;-86
2022/07/06 08:33:42;;;;;;;;;;;17.30;99.90;;;;;;5031704;28;20419;-86
2022/07/06 08:36:08;;;;;;;;;;;17.30;99.90;;;;;;5040650;28;19927;-86
2022/07/06 08:38:35;;;;;;;;;;;17.50;99.90;;;;;;5051000;28;19924;-87
2022/07/06 08:41:05;;;;;;;;;;;17.50;99.90;;;;;;5071310;28;19916;-87
2022/07/06 08:43:34;;;;;;;;;;;17.60;99.90;;;;;;5041876;28;19920;-86
2022/07/06 08:46:06;;;;;;;;;;;17.70;99.90;;;;;;5059757;28;19923;-86
2022/07/06 08:48:36;;;;;;;;;;;17.80;99.90;;;;;;5076158;28;19928;-86
2022/07/06 08:51:05;;;;;;;;;;;17.80;99.90;;;;;;5044056;28;19974;-86
2022/07/06 08:53:39;;;;;;;;;;;17.80;99.90;;;;;;5049859;28;20015;-85
2022/07/06 08:56:07;;;;;;;;;;;17.80;99.90;;;;;;5065936;28;20378;-87
2022/07/06 08:58:36;;;;;;;;;;;17.80;99.90;;;;;;5070945;28;19923;-85
2022/07/06 09:01:08;;;;;;;;;;;17.80;99.90;;;;;;5045949;28;19916;-85
2022/07/06 09:03:34;;;;;;;;;;;18.00;99.90;;;;;;5063518;28;19920;-86
2022/07/06 09:06:06;;;;;;;;;;;18.10;99.90;;;;;;5062257;28;19924;-85
2022/07/06 09:08:36;;;;;;;;;;;18.20;99.90;;;;;;5034542;28;20446;-86
2022/07/06 09:11:09;;;;;;;;;;;18.30;99.90;;;;;;5061751;28;19935;-86
2022/07/06 09:13:35;;;;;;;;;;;18.30;99.90;;;;;;5044893;28;19975;-86
2022/07/06 09:16:10;;;;;;;;;;;18.40;99.90;;;;;;5020940;28;19921;-84
2022/07/06 09:18:46;;;;;;;;;;;18.40;99.90;;;;;;5031581;28;19916;-87
2022/07/06 09:21:21;;;;;;;;;;;18.30;99.90;;;;;;5034111;28;19917;-86
2022/07/06 09:23:47;;;;;;;;;;;18.20;99.90;;;;;;5051712;28;19924;-86
2022/07/06 09:26:12;;;;;;;;;;;18.10;99.90;;;;;;5049952;28;19925;-86
2022/07/06 09:28:44;;;;;;;;;;;18.00;99.90;;;;;;5039973;28;20379;-86
2022/07/06 09:31:11;;;;;;;;;;;17.90;99.90;;;;;;5050511;28;19917;-86
2022/07/06 09:33:52;;;;;;;;;;;17.90;99.90;;;;;;5050181;28;19927;-84
2022/07/06 09:36:36;;;;;;;;;;;17.80;99.90;;;;;;5056854;28;20011;-86
2022/07/06 09:39:14;;;;;;;;;;;17.80;99.90;;;;;;5038507;28;20679;-86
2022/07/06 09:41:39;;;;;;;;;;;18.00;99.90;;;;;;5065067;28;19928;-86
2022/07/06 09:44:06;;;;;;;;;;;17.80;99.90;;;;;;5049170;28;20303;-86
2022/07/06 09:46:40;;;;;;;;;;;17.80;99.90;;;;;;5057644;28;19923;-86
2022/07/06 09:49:06;;;;;;;;;;;17.80;99.90;;;;;;5062952;28;19977;-84
2022/07/06 09:51:41;;;;;;;;;;;17.90;99.90;;;;;;5056116;28;19921;-86
2022/07/06 09:54:09;;;;;;;;;;;18.00;99.90;;;;;;5038217;28;20015;-86
2022/07/06 09:56:38;;;;;;;;;;;18.20;99.90;;;;;;5061030;28;20056;-85
2022/07/06 09:59:11;;;;;;;;;;;18.30;99.90;;;;;;5053412;28;20420;-86
2022/07/06 10:01:37;;;;;;;;;;;18.60;99.90;;;;;;5053262;28;20342;-86
2022/07/06 10:04:06;;;;;;;;;;;18.60;99.90;;;;;;5053687;28;19966;-85
2022/07/06 10:06:42;;;;;;;;;;;18.80;99.90;;;;;;5071060;28;20011;-86
2022/07/06 10:09:08;;;;;;;;;;;18.80;99.90;;;;;;5049376;28;19916;-86
2022/07/06 10:11:36;;;;;;;;;;;18.80;99.90;;;;;;5066058;22;19949;-73
2022/07/06 10:14:03;;;;;;;;;;;18.80;99.90;;;;;;5004280;28;19939;-72
2022/07/06 10:16:29;;;;;;;;;;;19.00;99.90;;;;;;5010780;28;19996;-70
2022/07/06 10:18:54;;;;;;;;;;;18.70;99.90;;;;;;5003282;28;20335;-70
2022/07/06 10:21:23;;;;;;;;;;;18.80;99.90;;;;;;5018737;28;19921;-70
2022/07/06 10:23:49;;;;;;;;;;;18.70;99.90;;;;;;5019088;28;20303;-70
2022/07/06 10:26:16;;;;;;;;;;;18.80;99.90;;;;;;4987727;28;20052;-70
2022/07/06 10:28:42;;;;;;;;;;;18.80;99.90;;;;;;4987553;28;20251;-70
2022/07/06 10:31:07;;;;;;;;;;;18.80;99.90;;;;;;5006162;28;20032;-70
2022/07/06 10:33:33;;;;;;;;;;;18.60;99.90;;;;;;5004802;28;19917;-70
2022/07/06 10:35:59;;;;;;;;;;;18.70;99.90;;;;;;5001587;28;19929;-70
2022/07/06 10:38:31;;;;;;;;;;;18.90;99.90;;;;;;5002849;28;20019;-71
2022/07/06 10:41:04;;;;;;;;;;;19.00;99.90;;;;;;4986874;28;19929;-70
2022/07/06 10:43:33;;;;;;;;;;;19.00;99.90;;;;;;4969585;28;19976;-71
2022/07/06 10:45:59;;;;;;;;;;;19.10;99.90;;;;;;4991187;28;20404;-72
2022/07/06 10:48:25;;;;;;;;;;;19.20;99.90;;;;;;5006416;28;19917;-71
2022/07/06 10:50:54;;;;;;;;;;;19.20;99.90;;;;;;4989017;28;19921;-70
2022/07/06 10:53:24;;;;;;;;;;;19.30;99.90;;;;;;5000938;28;19936;-71
2022/07/06 10:55:51;;;;;;;;;;;19.40;99.90;;;;;;5004701;28;19926;-71
2022/07/06 10:58:36;;;;;;;;;;;19.60;99.90;;;;;;5004930;28;19925;-71
2022/07/06 11:01:01;;;;;;;;;;;19.70;99.90;;;;;;4985738;28;20033;-71
2022/07/06 11:03:36;;;;;;;;;;;19.80;99.90;;;;;;5003021;28;19947;-71
2022/07/06 11:06:06;;;;;;;;;;;19.80;99.90;;;;;;4989109;28;19918;-71
2022/07/06 11:08:47;;;;;;;;;;;19.70;99.90;;;;;;5020224;28;19922;-71
2022/07/06 11:11:18;;;;;;;;;;;19.70;99.90;;;;;;5006147;28;19921;-71
2022/07/06 11:14:03;;;;;;;;;;;19.80;99.90;;;;;;5004952;28;19917;-71
2022/07/06 11:16:52;;;;;;;;;;;19.90;99.90;;;;;;5004748;28;20140;-71
2022/07/06 11:19:18;;;;;;;;;;;20.10;99.90;;;;;;5000581;28;20021;-71
2022/07/06 11:21:49;;;;;;;;;;;20.20;99.90;;;;;;5005435;28;19917;-70
2022/07/06 11:24:15;;;;;;;;;;;20.10;99.90;;;;;;5008891;28;20362;-71
2022/07/06 11:26:41;;;;;;;;;;;20.00;99.90;;;;;;5008920;28;19929;-71
2022/07/06 11:29:10;;;;;;;;;;;19.90;99.90;;;;;;5006650;28;19933;-70
2022/07/06 11:31:39;;;;;;;;;;;19.90;99.90;;;;;;5008195;28;20423;-70
2022/07/06 11:34:05;;;;;;;;;;;19.80;99.90;;;;;;5002560;28;20327;-71
2022/07/06 11:36:31;;;;;;;;;;;19.80;99.90;;;;;;4997372;28;20001;-70
2022/07/06 11:38:57;;;;;;;;;;;19.80;99.90;;;;;;5005941;28;19968;-70
2022/07/06 11:41:23;;;;;;;;;;;20.00;99.90;;;;;;5006465;28;19957;-71
2022/07/06 11:43:51;;;;;;;;;;;20.00;99.90;;;;;;5004815;28;19925;-71
2022/07/06 11:46:25;;;;;;;;;;;19.80;99.90;;;;;;5003988;28;19917;-70
2022/07/06 11:48:58;;;;;;;;;;;19.80;99.90;;;;;;5004859;28;19925;-71
2022/07/06 11:51:25;;;;;;;;;;;20.00;99.90;;;;;;5005743;28;20012;-70
2022/07/06 11:53:58;;;;;;;;;;;20.00;99.90;;;;;;5000214;28;19917;-70
2022/07/06 11:56:27;;;;;;;;;;;19.90;99.90;;;;;;5006035;28;19921;-71
2022/07/06 11:58:53;;;;;;;;;;;20.00;99.90;;;;;;5005166;28;19917;-71
2022/07/06 12:01:20;;;;;;;;;;;20.10;99.00;;;;;;5004501;28;19973;-70
2022/07/06 12:03:46;;;;;;;;;;;20.20;99.90;;;;;;5003286;28;19980;-70
2022/07/06 12:06:20;;;;;;;;;;;20.40;99.90;;;;;;5004160;28;19925;-71
2022/07/06 12:08:50;;;;;;;;;;;20.30;99.90;;;;;;4990865;28;19987;-71
2022/07/06 12:11:17;;;;;;;;;;;20.40;99.90;;;;;;5006222;28;19917;-70
2022/07/06 12:13:43;;;;;;;;;;;20.50;98.80;;;;;;4991690;28;19925;-70
2022/07/06 12:16:09;;;;;;;;;;;20.40;98.40;;;;;;5009761;28;20294;-70
2022/07/06 12:18:41;;;;;;;;;;;20.30;94.80;;;;;;5009229;28;19917;-70
2022/07/06 12:21:07;;;;;;;;;;;20.30;98.00;;;;;;5006281;28;19935;-70
2022/07/06 12:23:46;;;;;;;;;;;20.30;99.20;;;;;;5008838;28;19957;-70
2022/07/06 12:26:13;;;;;;;;;;;20.50;95.00;;;;;;5009245;28;19925;-70
2022/07/06 12:28:39;;;;;;;;;;;20.70;98.10;;;;;;5007447;28;19921;-70
2022/07/06 12:31:04;;;;;;;;;;;20.90;98.10;;;;;;4990490;28;19933;-70
2022/07/06 12:33:30;;;;;;;;;;;20.80;95.10;;;;;;5005713;28;19960;-70
2022/07/06 12:35:56;;;;;;;;;;;20.70;97.00;;;;;;5008856;28;19929;-70
2022/07/06 12:38:29;;;;;;;;;;;20.90;94.30;;;;;;4992766;28;19917;-70
2022/07/06 12:40:55;;;;;;;;;;;20.80;94.80;;;;;;4998909;28;20357;-70
2022/07/06 12:43:35;;;;;;;;;;;20.70;96.00;;;;;;5005508;28;19922;-70
2022/07/06 12:46:20;;;;;;;;;;;20.70;95.90;;;;;;5005763;28;19928;-70
2022/07/06 12:48:52;;;;;;;;;;;20.50;96.90;;;;;;5008013;28;19918;-70
2022/07/06 12:51:18;;;;;;;;;;;20.50;99.10;;;;;;5006848;28;20265;-70
2022/07/06 12:53:43;;;;;;;;;;;20.50;98.40;;;;;;4991079;28;20262;-70
2022/07/06 12:56:10;;;;;;;;;;;20.30;97.50;;;;;;5008279;28;19962;-71
2022/07/06 12:58:35;;;;;;;;;;;20.20;98.40;;;;;;5007371;28;19918;-70
2022/07/06 13:01:01;;;;;;;;;;;20.20;99.90;;;;;;5006555;28;19987;-70
2022/07/06 13:03:26;;;;;;;;;;;20.10;99.90;;;;;;5008692;28;20000;-70
2022/07/06 13:05:52;;;;;;;;;;;20.10;99.30;;;;;;5007051;28;20000;-70
2022/07/06 13:08:17;;;;;;;;;;;20.10;99.10;;;;;;5007056;28;20370;-70
2022/07/06 13:10:44;;;;;;;;;;;20.20;99.90;;;;;;5008425;28;19986;-70
2022/07/06 13:13:10;;;;;;;;;;;20.20;99.10;;;;;;5005806;28;19972;-71
2022/07/06 13:15:35;;;;;;;;;;;20.20;99.90;;;;;;4996959;28;20326;-70
2022/07/06 13:18:01;;;;;;;;;;;20.30;99.90;;;;;;5005959;28;19917;-71
2022/07/06 13:20:28;;;;;;;;;;;20.30;98.50;;;;;;5006207;28;19917;-72
2022/07/06 13:22:53;;;;;;;;;;;20.30;98.70;;;;;;5005070;28;19952;-71
2022/07/06 13:25:18;;;;;;;;;;;20.20;99.90;;;;;;5006426;28;19964;-72
2022/07/06 13:27:44;;;;;;;;;;;20.10;98.70;;;;;;5005008;28;19952;-71
2022/07/06 13:30:10;;;;;;;;;;;20.10;99.90;;;;;;5019267;28;19925;-71
2022/07/06 13:32:36;;;;;;;;;;;20.10;99.90;;;;;;5004539;28;19917;-71
2022/07/06 13:35:02;;;;;;;;;;;20.10;99.90;;;;;;5005410;28;19921;-71
2022/07/06 13:37:27;;;;;;;;;;;20.10;99.90;;;;;;4987345;28;20082;-70
2022/07/06 13:39:53;;;;;;;;;;;20.10;99.90;;;;;;4999263;28;19920;-71
2022/07/06 13:42:18;;;;;;;;;;;20.00;99.90;;;;;;5006358;28;19917;-70
2022/07/06 13:44:44;;;;;;;;;;;19.80;99.90;;;;;;5006603;28;19924;-70
2022/07/06 13:47:09;;;;;;;;;;;19.70;99.90;;;;;;5005985;28;19921;-70
2022/07/06 13:49:35;;;;;;;;;;;19.60;99.90;;;;;;5003260;28;19976;-70
2022/07/06 13:52:03;;;;;;;;;;;19.60;99.90;;;;;;5000716;28;19917;-70
2022/07/06 13:54:29;;;;;;;;;;;19.50;99.90;;;;;;5006279;28;20292;-71
2022/07/06 13:56:55;;;;;;;;;;;19.40;99.90;;;;;;5002136;28;19940;-70
2022/07/06 13:59:20;;;;;;;;;;;19.40;99.90;;;;;;5003468;28;20230;-71
2022/07/06 14:01:46;;;;;;;;;;;19.40;99.90;;;;;;5006144;28;20281;-70
2022/07/06 14:04:11;;;;;;;;;;;19.30;99.90;;;;;;5005296;28;19964;-70
2022/07/06 14:06:37;;;;;;;;;;;19.20;99.90;;;;;;5005103;28;20530;-70
2022/07/06 14:09:02;;;;;;;;;;;19.20;99.90;;;;;;5006565;28;19924;-70
2022/07/06 14:11:28;;;;;;;;;;;19.10;99.90;;;;;;5007290;28;20211;-70
2022/07/06 14:13:53;;;;;;;;;;;19.10;99.90;;;;;;5003199;28;20019;-70
2022/07/06 14:16:19;;;;;;;;;;;19.00;99.90;;;;;;5029354;28;20000;-70
2022/07/06 14:18:44;;;;;;;;;;;18.90;99.90;;;;;;5020348;28;19971;-70
2022/07/06 14:21:10;;;;;;;;;;;18.80;99.90;;;;;;5007349;28;19935;-72
2022/07/06 14:23:35;;;;;;;;;;;18.70;99.90;;;;;;5005119;28;19929;-70
2022/07/06 14:26:01;;;;;;;;;;;18.60;99.90;;;;;;5005521;28;19921;-70
2022/07/06 14:28:26;;;;;;;;;;;18.50;99.90;;;;;;5005888;28;19921;-70